CheckWX is a tool to help pilots better visualize weather data.  It is not intended as a substitute for an official pre-flight weather briefing.

21:37:22 UTC

KTVF TAF
Thief River Falls Regional Airport
Thief River Falls, Minnesota, USA
KTVF 201739Z 2018/2118 36011KT P6SM SKC FM210300 26005KT P6SM SCT050 FM211500 30011KT P6SM SCT100

Mar-20@
18:00 UTC

Mar-20 @ 18:00 UTC

Mar-21@
03:00 UTC

Mar-21 @ 03:00 UTC

KTVF 201739Z 2018/2118 36011KT P6SM SKC
Wind
  • 360° at 11 KTS
Cloud Levels
  • Clear skies

Mar-21@
03:00 UTC

Mar-21 @ 03:00 UTC

Mar-21@
15:00 UTC

Mar-21 @ 15:00 UTC

FM210300 26005KT P6SM SCT050

From

From Standard forecast or significant change

Wind
  • 260° at 5 KTS
Cloud Levels
  • Scattered at 5,000' AGL

Mar-21@
15:00 UTC

Mar-21 @ 15:00 UTC

Mar-21@
18:00 UTC

Mar-21 @ 18:00 UTC

FM211500 30011KT P6SM SCT100

From

From Standard forecast or significant change

Wind
  • 300° at 11 KTS
Cloud Levels
  • Scattered at 10,000' AGL